createdAt,value
2022-07-27T00:00:53.050Z,16.60
2022-07-27T00:03:20.076Z,16.60
2022-07-27T00:05:47.017Z,16.50
2022-07-27T00:08:14.084Z,16.50
2022-07-27T00:10:41.083Z,16.50
2022-07-27T00:13:08.364Z,16.50
2022-07-27T00:15:35.289Z,16.50
2022-07-27T00:18:02.401Z,16.40
2022-07-27T00:20:30.841Z,16.40
2022-07-27T00:22:59.494Z,16.40
2022-07-27T00:25:27.811Z,16.40
2022-07-27T00:27:56.942Z,16.40
2022-07-27T00:30:25.203Z,16.40
2022-07-27T00:32:52.906Z,16.30
2022-07-27T00:35:19.988Z,16.30
2022-07-27T00:37:46.859Z,16.30
2022-07-27T00:40:14.380Z,16.30
2022-07-27T00:42:41.262Z,16.30
2022-07-27T00:45:09.381Z,16.20
2022-07-27T00:47:36.390Z,16.20
2022-07-27T00:50:04.868Z,16.20
2022-07-27T00:52:31.981Z,16.20
2022-07-27T00:55:00.090Z,16.10
2022-07-27T00:57:30.539Z,16.10
2022-07-27T00:59:57.448Z,16.10
2022-07-27T01:02:24.567Z,16.10
2022-07-27T01:04:53.764Z,16.10
2022-07-27T01:07:24.550Z,16.10
2022-07-27T01:09:57.659Z,16.10
2022-07-27T01:12:31.492Z,16.10
2022-07-27T01:14:59.911Z,16.10
2022-07-27T01:17:31.484Z,16.10
2022-07-27T01:19:59.763Z,16.20
2022-07-27T01:22:27.158Z,16.20
2022-07-27T01:24:54.240Z,16.20
2022-07-27T01:27:21.585Z,16.30
2022-07-27T01:29:48.856Z,16.30
2022-07-27T01:32:16.090Z,16.30
2022-07-27T01:34:43.098Z,16.40
2022-07-27T01:37:10.056Z,16.40
2022-07-27T01:39:36.983Z,16.40
2022-07-27T01:42:04.732Z,16.40
2022-07-27T01:44:31.670Z,16.40
2022-07-27T01:46:58.567Z,16.40
2022-07-27T01:49:25.605Z,16.40
2022-07-27T01:51:52.597Z,16.30
2022-07-27T01:54:19.560Z,16.30
2022-07-27T01:56:46.474Z,16.30
2022-07-27T01:59:16.483Z,16.30
2022-07-27T02:01:45.199Z,16.30
2022-07-27T02:04:12.565Z,16.20
2022-07-27T02:06:39.529Z,16.20
2022-07-27T02:09:06.812Z,16.10
2022-07-27T02:11:51.919Z,16.20
2022-07-27T02:14:19.207Z,16.10
2022-07-27T02:16:48.395Z,16.10
2022-07-27T02:19:18.417Z,16.00
2022-07-27T02:21:46.057Z,16.00
2022-07-27T02:24:12.994Z,16.00
2022-07-27T02:26:39.848Z,15.90
2022-07-27T02:29:07.102Z,15.90
2022-07-27T02:31:34.000Z,15.80
2022-07-27T02:34:00.961Z,15.80
2022-07-27T02:36:30.919Z,15.70
2022-07-27T02:38:58.581Z,15.70
2022-07-27T02:41:25.504Z,15.60
2022-07-27T02:43:52.382Z,15.60
2022-07-27T02:46:19.352Z,15.60
2022-07-27T02:48:46.651Z,15.60
2022-07-27T02:51:15.121Z,15.60
2022-07-27T02:53:42.393Z,15.60
2022-07-27T02:56:09.444Z,15.60
2022-07-27T02:58:37.509Z,15.60
2022-07-27T03:01:07.070Z,15.60
2022-07-27T03:03:36.042Z,15.50
2022-07-27T03:06:07.414Z,15.50
2022-07-27T03:08:36.021Z,15.50
2022-07-27T03:11:02.934Z,15.50
2022-07-27T03:13:30.493Z,15.50
2022-07-27T03:15:58.043Z,15.50
2022-07-27T03:18:25.438Z,15.50
2022-07-27T03:20:52.463Z,15.40
2022-07-27T03:23:20.022Z,15.50
2022-07-27T03:25:46.910Z,15.50
2022-07-27T03:28:13.777Z,15.50
2022-07-27T03:30:40.792Z,15.50
2022-07-27T03:33:07.872Z,15.60
2022-07-27T03:35:35.184Z,15.60
2022-07-27T03:38:02.194Z,15.60
2022-07-27T03:40:32.010Z,15.60
2022-07-27T03:42:59.378Z,15.70
2022-07-27T03:45:27.165Z,15.70
2022-07-27T03:47:54.377Z,15.80
2022-07-27T03:50:22.747Z,15.80
2022-07-27T03:52:50.889Z,15.80
2022-07-27T03:55:19.168Z,15.80
2022-07-27T03:57:46.949Z,15.80
2022-07-27T04:00:15.208Z,15.80
2022-07-27T04:02:42.747Z,15.80
2022-07-27T04:05:11.226Z,15.80
2022-07-27T04:07:38.691Z,15.80
2022-07-27T04:10:07.169Z,15.80
2022-07-27T04:12:39.401Z,15.80
2022-07-27T04:15:07.841Z,15.90
2022-07-27T04:17:54.478Z,15.90
2022-07-27T04:20:21.626Z,15.90
2022-07-27T04:22:48.831Z,16.00
2022-07-27T04:25:15.818Z,16.00
2022-07-27T04:27:42.699Z,16.00
2022-07-27T04:30:10.397Z,15.90
2022-07-27T04:32:37.708Z,15.90
2022-07-27T04:35:05.958Z,15.90
2022-07-27T04:37:33.584Z,16.00
2022-07-27T04:40:01.244Z,16.00
2022-07-27T04:42:29.798Z,16.10
2022-07-27T04:44:56.965Z,16.10
2022-07-27T04:47:23.894Z,16.20
2022-07-27T04:49:50.851Z,16.20
2022-07-27T04:52:18.438Z,16.30
2022-07-27T04:54:45.944Z,16.30
2022-07-27T04:57:12.835Z,16.30
2022-07-27T04:59:39.694Z,16.30
2022-07-27T05:02:06.607Z,16.40
2022-07-27T05:04:35.335Z,16.40
2022-07-27T05:07:02.247Z,16.50
2022-07-27T05:09:29.391Z,16.40
2022-07-27T05:11:56.331Z,16.50
2022-07-27T05:14:23.338Z,16.50
2022-07-27T05:16:50.776Z,16.50
2022-07-27T05:19:17.767Z,16.60
2022-07-27T05:21:44.746Z,16.60
2022-07-27T05:24:11.806Z,16.60
2022-07-27T05:26:38.902Z,16.70
2022-07-27T05:29:05.786Z,16.70
2022-07-27T05:31:32.796Z,16.70
2022-07-27T05:33:59.809Z,16.80
2022-07-27T05:36:27.171Z,16.80
2022-07-27T05:38:54.077Z,16.90
2022-07-27T05:41:26.625Z,16.90
2022-07-27T05:43:55.101Z,16.90
2022-07-27T05:46:23.024Z,17.00
2022-07-27T05:48:50.698Z,17.00
2022-07-27T05:51:17.939Z,17.10
2022-07-27T05:53:44.877Z,17.10
2022-07-27T05:56:11.881Z,17.20
2022-07-27T05:58:38.715Z,17.20
2022-07-27T06:01:05.664Z,17.30
2022-07-27T06:03:32.757Z,17.30
2022-07-27T06:06:18.693Z,17.40
2022-07-27T06:08:49.935Z,17.40
2022-07-27T06:11:16.819Z,17.50
2022-07-27T06:13:43.945Z,17.60
2022-07-27T06:16:13.638Z,17.60
2022-07-27T06:18:40.622Z,17.70
2022-07-27T06:21:07.866Z,17.80
2022-07-27T06:23:34.837Z,17.80
2022-07-27T06:26:01.760Z,18.00
2022-07-27T06:28:28.687Z,18.10
2022-07-27T06:30:55.570Z,18.30
2022-07-27T06:33:28.924Z,18.50
2022-07-27T06:35:58.270Z,18.70
2022-07-27T06:38:28.536Z,18.90
2022-07-27T06:40:56.128Z,18.90
2022-07-27T06:43:32.461Z,19.00
2022-07-27T06:45:59.528Z,19.00
2022-07-27T06:48:27.186Z,19.10
2022-07-27T06:50:54.318Z,19.10
2022-07-27T06:53:22.095Z,19.10
2022-07-27T06:55:49.904Z,19.00
2022-07-27T06:58:17.794Z,19.00
2022-07-27T07:00:45.725Z,19.10
2022-07-27T07:03:12.665Z,19.10
2022-07-27T07:05:45.863Z,19.00
2022-07-27T07:08:14.699Z,19.10
2022-07-27T07:10:44.344Z,19.10
2022-07-27T07:13:11.405Z,19.10
2022-07-27T07:15:41.007Z,19.20
2022-07-27T07:18:08.800Z,19.10
2022-07-27T07:20:37.301Z,19.20
2022-07-27T07:23:05.525Z,19.30
2022-07-27T07:25:33.872Z,19.40
2022-07-27T07:28:02.351Z,19.50
2022-07-27T07:30:30.500Z,19.80
2022-07-27T07:32:57.686Z,20.10
2022-07-27T08:27:59.061Z,23.70
2022-07-27T08:30:26.523Z,24.00
2022-07-27T08:32:58.431Z,24.40
2022-07-27T08:35:26.150Z,24.90
2022-07-27T08:37:53.124Z,25.10
2022-07-27T08:43:09.157Z,25.20
2022-07-27T08:45:37.491Z,25.20
2022-07-27T08:48:05.101Z,25.00
2022-07-27T08:50:34.562Z,25.10
2022-07-27T08:53:05.661Z,25.00
2022-07-27T08:55:36.163Z,25.00
2022-07-27T08:58:04.276Z,25.10
2022-07-27T09:00:33.327Z,25.50
2022-07-27T09:03:00.947Z,25.80
2022-07-27T09:05:36.985Z,26.10
2022-07-27T09:08:33.967Z,26.20
2022-07-27T09:11:03.425Z,26.20
2022-07-27T09:13:34.599Z,26.20
2022-07-27T09:16:19.734Z,26.30
2022-07-27T09:18:48.123Z,26.20
2022-07-27T09:21:24.866Z,26.10
2022-07-27T09:24:13.438Z,26.10
2022-07-27T09:27:03.837Z,26.10
2022-07-27T09:29:35.962Z,26.10
2022-07-27T09:32:17.506Z,26.00
2022-07-27T09:34:45.650Z,26.20
2022-07-27T09:37:25.617Z,26.20
2022-07-27T09:40:12.568Z,26.30
2022-07-27T09:43:08.811Z,26.40
2022-07-27T09:45:34.748Z,26.40
2022-07-27T09:48:09.684Z,26.00
2022-07-27T09:50:53.162Z,25.70
2022-07-27T09:53:43.599Z,25.60
2022-07-27T09:56:16.004Z,25.50
2022-07-27T09:58:48.190Z,25.40
2022-07-27T10:01:30.921Z,25.30
2022-07-27T10:04:04.573Z,25.30
2022-07-27T10:06:47.708Z,25.30
2022-07-27T10:09:20.377Z,25.30
2022-07-27T10:11:50.640Z,25.30
2022-07-27T10:14:17.745Z,25.20
2022-07-27T10:16:50.174Z,25.20
2022-07-27T10:19:27.936Z,25.10
2022-07-27T10:21:54.817Z,25.20
2022-07-27T10:24:36.437Z,25.20
2022-07-27T10:27:28.078Z,25.30
2022-07-27T10:29:56.934Z,25.10
2022-07-27T10:32:34.840Z,25.00
2022-07-27T10:35:02.033Z,25.10
2022-07-27T10:37:30.993Z,25.10
2022-07-27T10:40:22.635Z,25.10
2022-07-27T10:42:54.714Z,25.00
2022-07-27T10:45:22.572Z,24.90
2022-07-27T10:47:58.639Z,24.90
2022-07-27T10:50:29.847Z,24.90
2022-07-27T10:53:04.915Z,25.00
2022-07-27T10:55:32.447Z,24.90
2022-07-27T10:58:22.180Z,25.00
2022-07-27T11:00:54.185Z,25.10
2022-07-27T11:03:25.960Z,25.10
2022-07-27T11:06:32.093Z,25.20
2022-07-27T11:09:38.692Z,25.20
2022-07-27T11:11:44.090Z,24.90
2022-07-27T11:14:12.134Z,24.80
2022-07-27T11:16:56.753Z,24.90
2022-07-27T11:19:27.308Z,24.90
2022-07-27T11:21:54.223Z,25.20
2022-07-27T11:24:23.489Z,25.20
2022-07-27T11:26:52.750Z,25.10
2022-07-27T11:29:24.093Z,25.00
2022-07-27T11:31:57.011Z,25.00
2022-07-27T11:34:35.641Z,25.00
2022-07-27T11:37:14.169Z,24.90
2022-07-27T11:40:00.111Z,24.80
2022-07-27T11:42:45.287Z,24.70
2022-07-27T11:45:12.191Z,24.70
2022-07-27T11:47:39.089Z,24.50
2022-07-27T11:50:08.952Z,24.50
2022-07-27T11:52:35.988Z,24.50
2022-07-27T11:55:03.152Z,24.40
2022-07-27T11:57:33.835Z,24.40
2022-07-27T12:00:02.139Z,24.60
2022-07-27T12:02:29.214Z,24.70
2022-07-27T12:05:02.397Z,24.90
2022-07-27T12:07:33.211Z,25.00
2022-07-27T12:10:03.990Z,25.00
2022-07-27T12:12:33.276Z,25.00
2022-07-27T12:15:16.735Z,24.80
2022-07-27T12:17:57.602Z,25.00
2022-07-27T12:20:33.412Z,25.00
2022-07-27T12:23:08.767Z,25.10
2022-07-27T12:25:36.455Z,25.10
2022-07-27T12:28:13.156Z,25.20
2022-07-27T12:30:51.957Z,25.30
2022-07-27T12:33:45.009Z,25.40
2022-07-27T12:36:11.864Z,25.40
2022-07-27T12:38:49.319Z,25.20
2022-07-27T12:41:36.303Z,25.40
2022-07-27T12:44:11.060Z,25.50
2022-07-27T12:47:01.729Z,25.60
2022-07-27T12:49:34.629Z,25.70
2022-07-27T12:52:09.932Z,25.80
2022-07-27T12:54:37.960Z,25.90
2022-07-27T12:57:04.956Z,25.80
2022-07-27T12:59:31.889Z,25.90
2022-07-27T13:01:58.852Z,25.90
2022-07-27T13:04:26.117Z,25.80
2022-07-27T13:06:52.961Z,26.00
2022-07-27T13:09:19.859Z,26.00
2022-07-27T13:11:48.251Z,26.10
2022-07-27T13:14:15.973Z,26.20
2022-07-27T13:16:42.954Z,26.20
2022-07-27T13:19:10.719Z,26.40
2022-07-27T13:21:37.952Z,26.50
2022-07-27T13:24:07.043Z,26.80
2022-07-27T13:26:33.931Z,26.90
2022-07-27T13:29:00.775Z,27.00
2022-07-27T13:31:27.810Z,27.00
2022-07-27T13:33:54.722Z,27.00
2022-07-27T13:36:21.829Z,27.00
2022-07-27T13:38:48.708Z,26.70
2022-07-27T13:41:15.676Z,26.60
2022-07-27T13:43:42.542Z,26.50
2022-07-27T13:46:10.662Z,26.40
2022-07-27T13:48:37.697Z,26.40
2022-07-27T13:51:04.697Z,26.20
2022-07-27T13:53:31.590Z,26.10
2022-07-27T13:55:58.482Z,25.90
2022-07-27T13:58:25.376Z,25.80
2022-07-27T14:00:52.443Z,25.70
2022-07-27T14:03:19.444Z,25.70
2022-07-27T14:05:49.550Z,25.60
2022-07-27T14:08:18.768Z,25.60
2022-07-27T14:10:48.604Z,25.50
2022-07-27T14:13:18.765Z,25.50
2022-07-27T14:15:50.577Z,25.40
2022-07-27T14:18:22.405Z,25.60
2022-07-27T14:20:49.524Z,25.70
2022-07-27T14:23:16.409Z,25.70
2022-07-27T14:25:43.307Z,25.80
2022-07-27T14:28:10.195Z,26.00
2022-07-27T14:30:37.083Z,26.00
2022-07-27T14:33:03.988Z,26.10
2022-07-27T14:35:31.042Z,26.20
2022-07-27T14:38:00.320Z,26.30
2022-07-27T14:40:27.643Z,26.30
2022-07-27T14:42:54.637Z,26.30
2022-07-27T14:45:21.507Z,26.20
2022-07-27T14:47:48.698Z,26.30
2022-07-27T14:50:15.766Z,26.50
2022-07-27T14:52:42.769Z,26.50
2022-07-27T14:55:11.091Z,26.50
2022-07-27T14:57:38.039Z,26.50
2022-07-27T15:00:10.513Z,26.50
2022-07-27T15:02:38.083Z,26.50
2022-07-27T15:05:06.003Z,26.50
2022-07-27T15:07:34.252Z,26.70
2022-07-27T15:10:02.287Z,26.70
2022-07-27T15:12:29.330Z,26.70
2022-07-27T15:14:57.179Z,26.80
2022-07-27T15:17:24.803Z,26.90
2022-07-27T15:19:52.202Z,27.00
2022-07-27T15:22:19.272Z,27.00
2022-07-27T15:24:46.374Z,27.00
2022-07-27T15:27:14.005Z,27.10
2022-07-27T15:29:41.480Z,27.10
2022-07-27T15:32:09.990Z,27.00
2022-07-27T15:34:37.436Z,26.90
2022-07-27T15:37:07.407Z,26.70
2022-07-27T15:39:39.382Z,26.50
2022-07-27T15:42:08.054Z,26.50
2022-07-27T15:44:36.239Z,26.20
2022-07-27T15:47:03.945Z,26.10
2022-07-27T15:49:30.987Z,25.90
2022-07-27T15:51:58.059Z,25.80
2022-07-27T15:54:25.847Z,25.70
2022-07-27T15:56:54.230Z,25.50
2022-07-27T15:59:21.100Z,25.40
2022-07-27T16:01:48.268Z,25.40
2022-07-27T16:04:15.617Z,25.30
2022-07-27T16:06:42.713Z,25.40
2022-07-27T16:09:10.035Z,25.50
2022-07-27T16:11:38.021Z,25.50
2022-07-27T16:14:04.955Z,25.50
2022-07-27T16:16:32.032Z,25.50
2022-07-27T16:19:13.729Z,25.40
2022-07-27T16:21:55.019Z,25.50
2022-07-27T16:24:26.502Z,25.30
2022-07-27T16:26:53.907Z,25.30
2022-07-27T16:29:20.959Z,25.20
2022-07-27T16:31:48.122Z,25.10
2022-07-27T16:34:15.058Z,25.10
2022-07-27T16:36:42.025Z,25.00
2022-07-27T16:39:08.910Z,25.00
2022-07-27T16:41:35.806Z,25.00
2022-07-27T16:44:02.686Z,25.00
2022-07-27T16:46:29.619Z,24.90
2022-07-27T16:48:56.658Z,24.80
2022-07-27T16:51:23.556Z,24.80
2022-07-27T16:53:50.617Z,24.70
2022-07-27T16:56:20.567Z,24.70
2022-07-27T16:58:47.491Z,24.70
2022-07-27T17:01:26.481Z,24.70
2022-07-27T17:03:56.515Z,24.70
2022-07-27T17:06:24.754Z,24.60
2022-07-27T17:08:51.875Z,24.60
2022-07-27T17:11:21.676Z,24.50
2022-07-27T17:13:50.107Z,24.40
2022-07-27T17:16:17.604Z,24.30
2022-07-27T17:18:44.700Z,24.30
2022-07-27T17:21:14.717Z,24.20
2022-07-27T17:23:42.480Z,24.10
2022-07-27T17:26:13.344Z,24.20
2022-07-27T17:28:41.062Z,24.10
2022-07-27T17:31:11.287Z,24.10
2022-07-27T17:33:40.095Z,24.00
2022-07-27T17:36:13.972Z,23.90
2022-07-27T17:38:43.953Z,23.90
2022-07-27T17:41:11.898Z,23.90
2022-07-27T17:43:39.075Z,23.80
2022-07-27T17:46:07.456Z,23.80
2022-07-27T17:48:35.627Z,23.70
2022-07-27T17:51:03.408Z,23.60
2022-07-27T17:53:30.554Z,23.60
2022-07-27T17:55:57.492Z,23.60
2022-07-27T17:58:28.098Z,23.50
2022-07-27T18:00:57.030Z,23.50
2022-07-27T18:03:24.028Z,23.50
2022-07-27T18:05:50.890Z,23.40
2022-07-27T18:08:17.943Z,23.40
2022-07-27T18:10:44.883Z,23.40
2022-07-27T18:13:12.326Z,23.40
2022-07-27T18:15:48.496Z,23.40
2022-07-27T18:18:38.789Z,23.30
2022-07-27T18:21:06.195Z,23.20
2022-07-27T18:23:33.853Z,23.20
2022-07-27T18:26:00.876Z,23.20
2022-07-27T18:28:27.859Z,23.10
2022-07-27T18:30:55.122Z,23.10
2022-07-27T18:33:22.441Z,23.00
2022-07-27T18:35:49.453Z,23.00
2022-07-27T18:38:16.666Z,23.00
2022-07-27T18:40:46.924Z,22.90
2022-07-27T18:43:16.573Z,22.90
2022-07-27T18:45:43.802Z,22.70
2022-07-27T18:48:11.305Z,22.60
2022-07-27T18:50:40.197Z,22.50
2022-07-27T18:53:08.432Z,22.40
2022-07-27T18:55:35.643Z,22.30
2022-07-27T18:58:03.431Z,22.20
2022-07-27T19:00:31.263Z,22.10
2022-07-27T19:02:58.852Z,22.10
2022-07-27T19:05:30.532Z,22.00
2022-07-27T19:08:00.182Z,21.90
2022-07-27T19:10:27.247Z,21.70
2022-07-27T19:12:54.926Z,21.60
2022-07-27T19:15:21.807Z,21.60
2022-07-27T19:17:48.790Z,21.50
2022-07-27T19:20:15.735Z,21.40
2022-07-27T19:22:47.539Z,21.40
2022-07-27T19:25:15.725Z,21.30
2022-07-27T19:27:43.222Z,21.10
2022-07-27T19:30:12.315Z,21.00
2022-07-27T19:32:39.531Z,21.00
2022-07-27T19:35:07.579Z,20.90
2022-07-27T19:37:35.658Z,20.80
2022-07-27T19:40:20.260Z,20.80
2022-07-27T19:42:50.474Z,20.80
2022-07-27T19:45:17.401Z,20.70
2022-07-27T19:47:44.289Z,20.70
2022-07-27T19:50:11.281Z,20.60
2022-07-27T19:52:38.197Z,20.50
2022-07-27T19:55:06.579Z,20.50
2022-07-27T19:57:33.602Z,20.40
2022-07-27T20:00:02.582Z,20.30
2022-07-27T20:02:29.623Z,20.30
2022-07-27T20:04:56.549Z,20.20
2022-07-27T20:07:23.443Z,20.10
2022-07-27T20:09:50.469Z,20.10
2022-07-27T20:12:17.680Z,20.00
2022-07-27T20:14:44.728Z,20.00
2022-07-27T20:17:11.699Z,20.10
2022-07-27T20:19:38.703Z,20.00
2022-07-27T20:22:05.609Z,19.90
2022-07-27T20:24:32.448Z,19.90
2022-07-27T20:26:59.338Z,19.90
2022-07-27T20:29:31.300Z,19.80
2022-07-27T20:31:58.895Z,19.80
2022-07-27T20:34:25.924Z,19.70
2022-07-27T20:36:54.498Z,19.70
2022-07-27T20:39:21.792Z,19.60
2022-07-27T20:41:49.053Z,19.60
2022-07-27T20:44:15.954Z,19.50
2022-07-27T20:46:42.913Z,19.50
2022-07-27T20:49:10.006Z,19.50
2022-07-27T20:51:37.162Z,19.40
2022-07-27T20:54:04.735Z,19.40
2022-07-27T20:56:31.875Z,19.30
2022-07-27T20:58:58.796Z,19.30
2022-07-27T21:01:25.713Z,19.30
2022-07-27T21:03:52.681Z,19.20
2022-07-27T21:06:19.609Z,19.10
2022-07-27T21:08:47.080Z,19.20
2022-07-27T21:11:14.234Z,19.10
2022-07-27T21:13:41.464Z,19.20
2022-07-27T21:16:08.587Z,19.10
2022-07-27T21:18:36.017Z,19.10
2022-07-27T21:21:03.212Z,19.10
2022-07-27T21:23:52.231Z,19.10
2022-07-27T21:26:19.269Z,19.00
2022-07-27T21:28:48.637Z,19.00
2022-07-27T21:31:15.532Z,18.90
2022-07-27T21:33:42.489Z,18.90
2022-07-27T21:36:11.608Z,18.90
2022-07-27T21:38:38.493Z,18.90
2022-07-27T21:41:05.819Z,18.90
2022-07-27T21:43:33.985Z,18.90
2022-07-27T21:46:01.254Z,18.80
2022-07-27T21:48:28.261Z,18.80
2022-07-27T21:50:55.201Z,18.80
2022-07-27T21:53:22.091Z,18.70
2022-07-27T21:55:49.029Z,18.70
2022-07-27T21:58:16.030Z,18.70
2022-07-27T22:00:43.385Z,18.60
2022-07-27T22:03:10.571Z,18.60
2022-07-27T22:05:37.556Z,18.60
2022-07-27T22:08:04.724Z,18.50
2022-07-27T22:10:32.115Z,18.50
2022-07-27T22:12:59.119Z,18.40
2022-07-27T22:15:26.700Z,18.40
2022-07-27T22:17:53.970Z,18.40
2022-07-27T22:20:21.846Z,18.30
2022-07-27T22:22:50.352Z,18.30
2022-07-27T22:25:18.710Z,18.30
2022-07-27T22:27:45.992Z,18.20
2022-07-27T22:30:12.942Z,18.20
2022-07-27T22:32:39.794Z,18.20
2022-07-27T22:35:07.743Z,18.20
2022-07-27T22:37:34.661Z,18.10
2022-07-27T22:40:01.840Z,18.10
2022-07-27T22:42:28.771Z,18.10
2022-07-27T22:44:55.652Z,18.00
2022-07-27T22:47:22.526Z,18.00
2022-07-27T22:49:49.515Z,17.90
2022-07-27T22:52:16.406Z,17.90
2022-07-27T22:54:43.388Z,17.90
2022-07-27T22:57:10.530Z,17.80
2022-07-27T22:59:38.718Z,17.80
2022-07-27T23:02:06.225Z,17.90
2022-07-27T23:04:33.228Z,17.80
2022-07-27T23:07:00.131Z,17.80
2022-07-27T23:09:27.027Z,17.80
2022-07-27T23:11:54.261Z,17.80
2022-07-27T23:14:21.238Z,17.70
2022-07-27T23:16:48.222Z,17.70
2022-07-27T23:19:15.200Z,17.70
2022-07-27T23:21:42.791Z,17.60
2022-07-27T23:24:14.262Z,17.60
2022-07-27T23:26:42.471Z,17.60
2022-07-27T23:29:09.551Z,17.50
2022-07-27T23:31:36.549Z,17.50
2022-07-27T23:34:03.596Z,17.50
2022-07-27T23:36:30.459Z,17.50
2022-07-27T23:38:57.386Z,17.40
2022-07-27T23:41:24.273Z,17.40
2022-07-27T23:43:51.187Z,17.40
2022-07-27T23:46:18.175Z,17.40
2022-07-27T23:48:45.168Z,17.30
2022-07-27T23:51:21.268Z,17.30
2022-07-27T23:53:48.717Z,17.20
2022-07-27T23:56:15.960Z,17.20
2022-07-27T23:58:43.505Z,17.10
